Time;durP1;ratioP1;P1;durP2;ratioP2;P2;SDS_P1;SDS_P2;PMS_P1;PMS_P2;Temp;Humidity;BMP_temperature;BMP_pressure;BME280_temperature;BME280_humidity;BME280_pressure;Samples;Min_cycle;Max_cycle;Signal;HPM_P1;HPM_P2
2021/09/03 00:00:41;;;;;;;23.05;14.15;;;;;;;13.44;100.00;102330.69;10461552;28;20048;-60
2021/09/03 00:05:44;;;;;;;17.77;12.88;;;;;;;13.32;100.00;102322.41;10461220;28;20055;-60
2021/09/03 00:10:46;;;;;;;17.40;12.13;;;;;;;13.54;100.00;102327.53;10461140;28;20049;-60
2021/09/03 00:15:49;;;;;;;25.88;16.35;;;;;;;13.27;100.00;102326.13;10460872;28;20400;-60
2021/09/03 00:20:51;;;;;;;24.30;14.75;;;;;;;13.13;100.00;102318.84;10460872;28;20429;-60
2021/09/03 00:25:54;;;;;;;23.40;15.05;;;;;;;13.17;100.00;102320.41;10460234;28;20056;-61
2021/09/03 00:30:56;;;;;;;18.88;13.45;;;;;;;13.19;100.00;102315.94;10460500;28;20049;-61
2021/09/03 00:35:59;;;;;;;24.33;15.10;;;;;;;12.98;100.00;102323.00;10460016;28;20049;-61
2021/09/03 00:41:01;;;;;;;19.60;13.40;;;;;;;13.08;100.00;102310.28;10460198;28;20056;-61
2021/09/03 00:46:03;;;;;;;29.45;16.55;;;;;;;12.92;100.00;102315.38;10442138;28;20053;-61
2021/09/03 00:51:06;;;;;;;21.05;14.57;;;;;;;12.85;100.00;102306.91;10459319;28;20448;-61
2021/09/03 00:56:08;;;;;;;24.75;13.77;;;;;;;12.94;100.00;102306.50;10458347;28;20049;-60
2021/09/03 01:01:11;;;;;;;24.73;16.20;;;;;;;12.82;100.00;102293.88;10459252;28;20051;-61
2021/09/03 01:06:14;;;;;;;32.08;17.63;;;;;;;12.89;100.00;102295.31;10459206;28;20079;-61
2021/09/03 01:11:16;;;;;;;24.15;14.43;;;;;;;12.79;100.00;102291.38;10458561;28;20056;-61
2021/09/03 01:16:18;;;;;;;26.63;15.95;;;;;;;12.94;100.00;102281.97;10457325;28;20045;-61
2021/09/03 01:21:21;;;;;;;25.10;15.75;;;;;;;12.88;100.00;102282.25;10458766;28;20098;-61
2021/09/03 01:26:25;;;;;;;25.80;15.27;;;;;;;12.74;100.00;102283.72;10458196;28;20060;-61
2021/09/03 01:31:28;;;;;;;18.67;13.98;;;;;;;12.80;100.00;102287.84;10458335;28;20052;-61
2021/09/03 01:36:31;;;;;;;21.40;15.05;;;;;;;12.70;100.00;102276.88;10457641;28;20421;-61
2021/09/03 01:41:33;;;;;;;28.00;18.05;;;;;;;12.55;100.00;102272.28;10457761;28;20505;-61
2021/09/03 01:46:36;;;;;;;23.80;16.20;;;;;;;12.74;100.00;102273.22;10456429;28;20060;-60
2021/09/03 01:51:38;;;;;;;25.15;15.15;;;;;;;12.64;100.00;102269.25;10457744;28;20040;-60
2021/09/03 01:56:41;;;;;;;23.38;17.17;;;;;;;12.45;100.00;102258.66;10457175;28;20049;-61
2021/09/03 02:01:43;;;;;;;24.02;16.90;;;;;;;12.48;100.00;102253.28;10457528;28;20049;-61
2021/09/03 02:06:45;;;;;;;27.63;16.83;;;;;;;12.61;100.00;102251.84;10456488;28;20048;-61
2021/09/03 02:11:48;;;;;;;23.58;15.55;;;;;;;12.41;100.00;102250.06;10457117;28;20041;-61
2021/09/03 02:16:50;;;;;;;25.75;16.42;;;;;;;12.36;100.00;102245.94;10456441;28;20477;-61
2021/09/03 02:21:53;;;;;;;24.58;16.17;;;;;;;12.36;100.00;102244.16;10456710;28;20048;-61
2021/09/03 02:26:56;;;;;;;25.75;16.08;;;;;;;12.28;100.00;102241.00;10456425;28;20056;-61
2021/09/03 02:31:58;;;;;;;21.90;15.77;;;;;;;12.29;100.00;102234.84;10456630;28;20041;-61
2021/09/03 02:37:00;;;;;;;25.50;16.55;;;;;;;12.34;100.00;102230.25;10456616;28;20052;-60
2021/09/03 02:42:03;;;;;;;24.83;15.40;;;;;;;12.36;100.00;102231.03;10456488;28;20059;-61
2021/09/03 02:47:05;;;;;;;27.02;17.92;;;;;;;12.31;100.00;102221.63;10456081;28;20075;-61
2021/09/03 02:52:08;;;;;;;23.38;16.35;;;;;;;12.42;100.00;102222.00;10456509;28;20048;-61
2021/09/03 02:57:10;;;;;;;27.30;17.70;;;;;;;12.47;100.00;102216.56;10454448;28;20055;-61
2021/09/03 03:02:12;;;;;;;31.63;20.02;;;;;;;12.40;100.00;102211.56;10456203;28;20064;-61
2021/09/03 03:07:15;;;;;;;31.25;19.83;;;;;;;12.41;100.00;102213.28;10455490;28;20416;-61
2021/09/03 03:12:21;;;;;;;36.72;21.90;;;;;;;12.39;100.00;102199.38;10456179;28;20051;-60
2021/09/03 03:17:23;;;;;;;30.48;18.10;;;;;;;12.36;100.00;102201.28;10460778;28;20045;-61
2021/09/03 03:22:26;;;;;;;32.38;20.95;;;;;;;12.10;100.00;102194.50;10463274;28;20485;-61
2021/09/03 03:27:28;;;;;;;33.42;19.63;;;;;;;12.16;100.00;102189.84;10462675;28;20072;-61
2021/09/03 03:32:50;;;;;;;33.72;19.75;;;;;;;12.24;100.00;102186.91;10462972;28;20053;-61
2021/09/03 03:37:52;;;;;;;27.50;18.20;;;;;;;12.32;100.00;102182.16;10462753;28;20049;-60
2021/09/03 03:42:55;;;;;;;29.67;19.35;;;;;;;12.48;100.00;102177.09;10462434;28;20048;-60
2021/09/03 03:47:57;;;;;;;40.20;24.73;;;;;;;12.46;100.00;102178.94;10462859;28;20045;-60
2021/09/03 03:52:59;;;;;;;32.88;21.17;;;;;;;12.50;100.00;102174.41;10462033;28;20041;-60
2021/09/03 03:58:02;;;;;;;34.85;21.67;;;;;;;12.35;100.00;102174.16;10461401;28;20401;-61
2021/09/03 04:03:04;;;;;;;37.58;23.42;;;;;;;12.34;100.00;102176.84;10461631;28;20402;-61
2021/09/03 04:08:06;;;;;;;37.33;24.85;;;;;;;12.26;100.00;102169.31;10461264;28;20053;-61
2021/09/03 04:13:09;;;;;;;43.00;24.08;;;;;;;12.17;100.00;102172.31;10461564;28;20045;-61
2021/09/03 04:18:11;;;;;;;42.92;23.48;;;;;;;12.08;100.00;102169.13;10460753;28;20045;-61
2021/09/03 04:23:14;;;;;;;36.50;21.25;;;;;;;12.36;100.00;102164.53;10460801;28;20409;-60
2021/09/03 04:28:16;;;;;;;38.30;24.48;;;;;;;12.32;100.00;102160.28;10460506;28;20067;-61
2021/09/03 04:33:18;;;;;;;42.78;25.27;;;;;;;12.34;100.00;102169.84;10460623;28;20044;-60
2021/09/03 04:38:22;;;;;;;43.50;27.15;;;;;;;12.47;100.00;102172.75;10460052;28;20055;-61
2021/09/03 04:43:24;;;;;;;49.13;26.27;;;;;;;12.35;100.00;102171.53;10460326;28;20056;-61
2021/09/03 04:48:26;;;;;;;48.25;28.98;;;;;;;12.24;100.00;102173.78;10459861;28;20049;-61
2021/09/03 04:53:29;;;;;;;39.90;24.58;;;;;;;12.12;100.00;102162.03;10460012;28;20049;-60
2021/09/03 04:58:31;;;;;;;47.90;27.60;;;;;;;12.20;100.00;102170.41;10459099;28;20049;-61
2021/09/03 05:03:33;;;;;;;35.45;23.60;;;;;;;12.21;100.00;102166.88;10459325;28;20055;-61
2021/09/03 05:08:36;;;;;;;44.88;26.73;;;;;;;12.06;100.00;102157.84;10459111;28;20076;-61
2021/09/03 05:13:38;;;;;;;40.40;25.77;;;;;;;12.35;100.00;102158.38;10459250;28;20055;-61
2021/09/03 05:18:41;;;;;;;51.42;28.60;;;;;;;12.19;100.00;102166.09;10458654;28;20045;-60
2021/09/03 05:23:43;;;;;;;45.85;27.45;;;;;;;12.16;100.00;102168.84;10459065;28;20064;-61
2021/09/03 05:28:45;;;;;;;44.53;27.30;;;;;;;12.27;100.00;102171.00;10457915;28;20057;-61
2021/09/03 05:33:47;;;;;;;42.03;25.85;;;;;;;12.21;100.00;102166.88;10458182;28;20056;-61
2021/09/03 05:38:50;;;;;;;45.58;27.77;;;;;;;12.27;100.00;102166.63;10456961;28;20045;-61
2021/09/03 05:43:53;;;;;;;44.28;27.98;;;;;;;12.60;100.00;102162.59;10456808;28;20052;-61
2021/09/03 05:48:55;;;;;;;45.75;28.08;;;;;;;12.54;100.00;102170.72;10457831;28;20053;-61
2021/09/03 05:53:57;;;;;;;44.25;28.17;;;;;;;12.74;100.00;102173.34;10457329;28;20489;-61
2021/09/03 05:59:00;;;;;;;41.90;24.65;;;;;;;13.06;100.00;102160.50;10457166;28;20041;-61
2021/09/03 06:04:03;;;;;;;47.38;27.90;;;;;;;13.00;100.00;102164.25;10457076;28;20440;-61
2021/09/03 06:09:05;;;;;;;48.35;28.30;;;;;;;13.09;100.00;102159.50;10456803;28;20375;-61
2021/09/03 06:14:08;;;;;;;54.35;30.17;;;;;;;13.26;100.00;102162.19;10457279;28;20052;-61
2021/09/03 06:19:10;;;;;;;52.50;29.88;;;;;;;13.27;100.00;102163.91;10456335;28;20056;-60
2021/09/03 06:24:28;;;;;;;55.92;33.08;;;;;;;13.09;100.00;102167.41;10457249;28;20041;-61
2021/09/03 06:29:38;;;;;;;52.13;31.20;;;;;;;13.04;100.00;102161.50;10457128;28;20064;-61
2021/09/03 06:34:43;;;;;;;48.10;29.63;;;;;;;13.35;100.00;102171.47;10455545;28;20049;-61
2021/09/03 06:39:46;;;;;;;52.17;31.70;;;;;;;13.45;100.00;102172.75;10456165;28;20052;-61
2021/09/03 06:44:49;;;;;;;45.53;28.38;;;;;;;13.88;100.00;102170.66;10456609;28;20049;-61
2021/09/03 06:49:51;;;;;;;58.45;35.38;;;;;;;13.59;100.00;102168.59;10456460;28;20056;-61
2021/09/03 06:54:53;;;;;;;58.80;33.95;;;;;;;13.87;100.00;102166.31;10464183;28;20056;-61
2021/09/03 06:59:56;;;;;;;56.80;35.35;;;;;;;13.88;100.00;102170.66;10463701;28;20060;-61
2021/09/03 07:04:58;;;;;;;57.42;35.65;;;;;;;14.38;100.00;102176.94;10464147;28;20052;-61
2021/09/03 07:10:01;;;;;;;63.25;34.97;;;;;;;14.52;100.00;102178.84;10463338;28;20484;-61
2021/09/03 07:15:03;;;;;;;59.25;32.63;;;;;;;14.76;100.00;102170.59;10463305;28;20485;-61
2021/09/03 07:20:07;;;;;;;57.30;35.60;;;;;;;14.78;100.00;102174.88;10463292;28;20528;-61
2021/09/03 07:25:10;;;;;;;46.35;30.65;;;;;;;15.33;100.00;102163.13;10463157;28;20053;-61
2021/09/03 07:30:12;;;;;;;49.55;31.23;;;;;;;15.56;100.00;102160.94;10462895;28;20072;-61
2021/09/03 07:35:15;;;;;;;48.08;32.08;;;;;;;16.14;100.00;102157.59;10463361;28;20049;-61
2021/09/03 07:40:17;;;;;;;42.90;28.05;;;;;;;16.67;100.00;102150.00;10462415;28;20504;-62
2021/09/03 07:45:20;;;;;;;43.28;26.75;;;;;;;17.01;100.00;102140.00;10461104;28;20053;-62
2021/09/03 07:50:23;;;;;;;36.80;25.98;;;;;;;16.74;99.39;102150.47;10461861;28;20111;-61
2021/09/03 07:55:25;;;;;;;41.17;28.50;;;;;;;17.19;99.17;102139.78;10462004;28;20138;-61
2021/09/03 08:00:27;;;;;;;34.08;24.20;;;;;;;17.33;100.00;102141.53;10461704;28;20045;-61
2021/09/03 08:05:31;;;;;;;37.78;26.23;;;;;;;18.22;95.75;102145.38;10460930;28;20137;-61
2021/09/03 08:10:34;;;;;;;40.45;26.88;;;;;;;17.63;97.66;102142.19;10461493;28;20049;-61
2021/09/03 08:15:37;;;;;;;33.28;22.98;;;;;;;18.32;93.17;102147.28;10460205;28;20053;-61
2021/09/03 08:20:42;;;;;;;26.05;20.13;;;;;;;19.60;88.20;102137.34;10461199;28;20068;-61
2021/09/03 08:25:44;;;;;;;32.90;23.48;;;;;;;18.72;94.64;102146.31;10461243;28;20065;-61
2021/09/03 08:30:46;;;;;;;32.10;22.60;;;;;;;19.80;87.40;102122.59;10460591;28;20059;-61
2021/09/03 08:35:49;;;;;;;25.10;19.40;;;;;;;19.84;86.66;102132.03;10460594;28;20071;-61
2021/09/03 08:40:51;;;;;;;31.65;21.80;;;;;;;19.78;90.04;102132.50;10460326;28;20049;-61
2021/09/03 08:45:54;;;;;;;25.15;19.77;;;;;;;20.92;86.46;102127.19;10459625;28;20060;-61
2021/09/03 08:50:57;;;;;;;24.08;18.23;;;;;;;21.40;81.61;102135.75;10459774;28;20052;-61
2021/09/03 08:55:59;;;;;;;23.73;17.90;;;;;;;21.89;78.87;102129.06;10459375;28;20056;-61
2021/09/03 09:01:10;;;;;;;24.10;18.27;;;;;;;20.99;80.25;102126.69;10459558;28;20048;-61
2021/09/03 09:06:18;;;;;;;;;;;;;;;22.38;77.22;102129.38;10459593;28;20102;-61
2021/09/03 09:11:21;;;;;;;29.30;20.30;;;;;;;21.32;79.50;102131.09;10458991;28;19921;-61
2021/09/03 09:16:26;;;;;;;32.90;18.33;;;;;;;22.71;75.62;102136.25;10457395;28;20052;-61
2021/09/03 09:21:38;;;;;;;22.58;17.05;;;;;;;22.71;69.74;102127.38;10458691;28;20512;-61
2021/09/03 09:26:45;;;;;;;29.10;17.58;;;;;;;23.47;74.03;102133.03;10457693;28;20061;-61
2021/09/03 09:31:51;;;;;;;21.73;17.40;;;;;;;23.26;66.06;102119.78;10457875;28;20049;-61
2021/09/03 09:36:55;;;;;;;22.88;14.77;;;;;;;23.19;75.83;102124.00;10456655;28;20048;-62
2021/09/03 09:42:00;;;;;;;20.88;15.02;;;;;;;23.77;69.29;102115.16;10458610;28;20041;-68
2021/09/03 09:47:07;;;;;;;19.83;12.98;;;;;;;24.33;66.63;102118.00;10458083;28;20057;-63
2021/09/03 09:52:11;;;;;;;22.27;15.70;;;;;;;24.01;70.22;102112.03;10457593;28;20049;-64
2021/09/03 09:57:14;;;;;;;22.55;16.38;;;;;;;24.63;66.18;102095.50;10457124;28;20485;-63
2021/09/03 10:02:16;;;;;;;16.30;13.70;;;;;;;24.54;64.62;102097.16;10456057;28;20056;-63
2021/09/03 10:07:20;;;;;;;19.55;13.45;;;;;;;24.83;66.85;102098.88;10456768;28;20053;-63
2021/09/03 10:12:22;;;;;;;17.95;12.43;;;;;;;25.24;61.72;102091.25;10455961;28;20049;-64
2021/09/03 10:17:25;;;;;;;18.45;13.07;;;;;;;24.25;65.66;102091.94;10455304;28;20048;-63
2021/09/03 10:22:46;;;;;;;16.80;12.82;;;;;;;24.53;62.64;102090.16;10455720;28;20045;-63
2021/09/03 10:28:03;;;;;;;;;;;;;;;25.18;58.31;102091.88;10456806;28;20436;-63
2021/09/03 10:33:13;;;;;;;18.05;10.20;;;;;;;25.53;64.08;102085.66;10455418;28;19927;-63
2021/09/03 10:38:29;;;;;;;12.43;9.33;;;;;;;25.93;59.57;102070.84;10456293;28;20045;-64
2021/09/03 10:43:42;;;;;;;12.38;10.05;;;;;;;27.34;54.62;102065.00;10456622;28;20048;-63
2021/09/03 10:48:51;;;;;;;11.18;9.00;;;;;;;26.32;56.51;102064.22;10456735;28;20055;-63
2021/09/03 10:53:55;;;;;;;14.55;9.32;;;;;;;25.94;55.81;102058.28;10456306;28;20045;-61
2021/09/03 10:59:05;;;;;;;16.52;9.40;;;;;;;26.23;57.85;102055.28;10455509;28;20060;-62
2021/09/03 11:04:11;;;;;;;9.90;6.50;;;;;;;28.94;49.79;102035.34;10455967;28;20045;-62
2021/09/03 11:09:16;;;;;;;11.27;7.60;;;;;;;28.59;49.21;102040.28;10455759;28;20056;-61
2021/09/03 11:14:21;;;;;;;11.68;7.95;;;;;;;28.46;52.74;102032.75;10455876;28;20056;-61
2021/09/03 11:19:32;;;;;;;9.50;7.35;;;;;;;28.53;47.94;102030.19;10455417;28;20505;-61
2021/09/03 11:24:39;;;;;;;12.05;8.63;;;;;;;26.96;49.10;102018.06;10455574;28;20051;-61
2021/09/03 11:29:46;;;;;;;11.20;7.60;;;;;;;29.03;49.37;102006.44;10455047;28;20053;-61
2021/09/03 11:34:59;;;;;;;11.52;8.23;;;;;;;27.36;48.84;102008.34;10455656;28;20123;-62
2021/09/03 11:40:20;;;;;;;11.73;7.50;;;;;;;28.00;46.10;102016.47;10461019;28;20120;-61
2021/09/03 11:45:23;;;;;;;10.45;6.55;;;;;;;28.77;47.50;102004.13;10462418;28;20490;-62
2021/09/03 11:50:37;;;;;;;12.20;6.78;;;;;;;29.44;49.57;102004.25;10460954;28;20041;-61
2021/09/03 11:55:42;;;;;;;11.00;7.15;;;;;;;29.32;46.00;102003.03;10461337;28;20041;-61
2021/09/03 12:00:55;;;;;;;8.27;6.28;;;;;;;28.30;49.19;102005.91;10461899;28;20049;-62
2021/09/03 12:06:01;;;;;;;10.27;6.65;;;;;;;29.09;46.59;101995.78;10460476;28;20626;-62
2021/09/03 12:11:10;;;;;;;9.93;8.27;;;;;;;27.60;51.03;101994.00;10461647;28;20128;-61
2021/09/03 12:16:22;;;;;;;9.85;6.38;;;;;;;29.95;44.89;101984.63;10460999;28;20489;-61
2021/09/03 12:21:29;;;;;;;7.88;6.38;;;;;;;28.42;46.54;101974.03;10461273;28;20044;-61
2021/09/03 12:26:52;;;;;;;9.93;7.88;;;;;;;29.23;44.80;101971.75;10460735;28;20061;-62
2021/09/03 12:32:00;;;;;;;9.95;5.85;;;;;;;30.14;44.19;101976.97;10459606;28;20055;-61
2021/09/03 12:37:05;;;;;;;9.38;6.47;;;;;;;30.24;42.94;101979.38;10459042;28;20052;-62
2021/09/03 12:42:15;;;;;;;7.72;5.50;;;;;;;32.15;43.04;101964.03;10460550;28;20061;-61
2021/09/03 12:47:19;;;;;;;11.07;6.22;;;;;;;29.91;49.08;101971.69;10459514;28;20063;-62
2021/09/03 12:52:25;;;;;;;7.70;5.20;;;;;;;30.83;43.52;101967.53;10459809;28;20520;-61
2021/09/03 12:57:27;;;;;;;8.18;6.13;;;;;;;29.15;45.76;101951.09;10458573;28;20136;-62
2021/09/03 13:02:32;;;;;;;10.90;6.35;;;;;;;29.60;46.80;101951.97;10459728;28;20056;-62
2021/09/03 13:07:34;;;;;;;10.23;6.40;;;;;;;29.67;45.65;101952.06;10459164;28;20138;-62
2021/09/03 13:12:39;;;;;;;10.05;6.57;;;;;;;28.74;47.20;101940.66;10459595;28;20041;-61
2021/09/03 13:17:41;;;;;;;10.43;6.03;;;;;;;30.10;44.08;101937.88;10458653;28;20052;-61
2021/09/03 13:22:44;;;;;;;7.15;5.80;;;;;;;30.24;44.64;101939.69;10459057;28;20049;-61
2021/09/03 13:27:46;;;;;;;9.63;6.90;;;;;;;28.69;46.36;101937.66;10456989;28;20057;-61
2021/09/03 13:32:49;;;;;;;10.50;5.85;;;;;;;29.99;42.71;101934.66;10458869;28;20049;-62
2021/09/03 13:37:53;;;;;;;7.68;5.85;;;;;;;29.79;45.73;101922.75;10457832;28;20440;-62
2021/09/03 13:42:56;;;;;;;7.57;6.15;;;;;;;29.83;41.19;101915.97;10457970;28;20092;-61
2021/09/03 13:47:58;;;;;;;7.22;5.22;;;;;;;28.97;46.08;101910.16;10457452;28;20402;-61
2021/09/03 13:53:01;;;;;;;7.30;5.07;;;;;;;30.40;43.60;101908.94;10457557;28;20053;-61
2021/09/03 13:58:03;;;;;;;8.85;5.85;;;;;;;30.50;43.63;101904.06;10457541;28;20051;-62
2021/09/03 14:03:06;;;;;;;8.05;6.85;;;;;;;27.07;48.58;101896.81;10455557;28;20052;-61
2021/09/03 14:08:12;;;;;;;14.50;5.82;;;;;;;28.66;45.70;101886.84;10456921;28;20084;-62
2021/09/03 14:13:15;;;;;;;11.70;6.03;;;;;;;29.54;42.10;101892.50;10457288;28;20040;-62
2021/09/03 14:18:17;;;;;;;10.45;6.38;;;;;;;28.05;47.90;101884.06;10456727;28;20048;-59
2021/09/03 14:23:19;;;;;;;10.68;5.90;;;;;;;31.51;43.05;101875.88;10457340;28;20080;-59
2021/09/03 14:28:22;;;;;;;7.15;5.25;;;;;;;31.17;44.79;101874.00;10456932;28;20061;-59
2021/09/03 14:33:24;;;;;;;9.82;6.05;;;;;;;30.08;44.83;101858.94;10456369;28;20052;-60
2021/09/03 14:38:27;;;;;;;12.05;6.78;;;;;;;28.79;46.19;101861.97;10456267;28;20045;-59
2021/09/03 14:43:29;;;;;;;5.80;5.18;;;;;;;29.98;44.47;101865.47;10456371;28;20045;-59
2021/09/03 14:48:31;;;;;;;7.20;6.13;;;;;;;28.80;51.71;101864.47;10456643;28;20048;-59
2021/09/03 14:53:35;;;;;;;9.20;6.25;;;;;;;29.00;46.58;101858.53;10456388;28;20048;-59
2021/09/03 14:58:37;;;;;;;9.75;6.50;;;;;;;29.04;45.55;101849.09;10456332;28;20056;-59
2021/09/03 15:03:40;;;;;;;10.43;7.10;;;;;;;29.72;47.13;101838.97;10456257;28;20056;-60
2021/09/03 15:08:43;;;;;;;7.57;5.45;;;;;;;30.32;44.32;101831.53;10455799;28;20060;-61
2021/09/03 15:13:45;;;;;;;9.23;6.93;;;;;;;28.53;45.12;101830.88;10461472;28;20409;-59
2021/09/03 15:18:47;;;;;;;9.93;6.78;;;;;;;27.39;48.56;101838.63;10463400;28;20097;-60
2021/09/03 15:23:50;;;;;;;8.80;7.25;;;;;;;27.96;49.94;101830.28;10463436;28;20548;-59
2021/09/03 15:28:52;;;;;;;12.15;6.53;;;;;;;28.12;51.51;101820.41;10462726;28;20053;-59
2021/09/03 15:33:56;;;;;;;6.10;5.50;;;;;;;28.96;48.24;101830.31;10463478;28;20049;-61
2021/09/03 15:39:01;;;;;;;7.55;5.88;;;;;;;29.10;46.73;101826.75;10462596;28;20053;-62
2021/09/03 15:44:04;;;;;;;11.52;6.75;;;;;;;25.99;53.66;101819.03;10462695;28;20052;-60
2021/09/03 15:49:06;;;;;;;8.38;6.72;;;;;;;26.72;53.43;101815.56;10461291;28;20056;-60
2021/09/03 15:54:09;;;;;;;8.55;5.75;;;;;;;26.38;54.81;101819.25;10461979;28;20052;-62
2021/09/03 15:59:12;;;;;;;8.73;6.50;;;;;;;25.61;56.38;101818.59;10461962;28;20059;-63
2021/09/03 16:04:14;;;;;;;9.15;6.50;;;;;;;25.59;57.66;101816.91;10462122;28;20045;-63
2021/09/03 16:09:17;;;;;;;9.30;5.88;;;;;;;24.80;59.49;101818.81;10461854;28;20053;-62
2021/09/03 16:14:19;;;;;;;10.50;6.97;;;;;;;24.23;60.73;101810.31;10461473;28;20052;-62
2021/09/03 16:19:22;;;;;;;7.20;5.78;;;;;;;24.24;62.02;101810.16;10461025;28;20052;-63
2021/09/03 16:24:24;;;;;;;8.80;6.40;;;;;;;23.73;61.98;101815.13;10460135;28;20048;-62
2021/09/03 16:29:27;;;;;;;9.48;6.85;;;;;;;23.66;60.33;101810.53;10460701;28;20057;-62
2021/09/03 16:34:29;;;;;;;10.18;7.05;;;;;;;23.63;63.09;101805.47;10461027;28;20049;-63
2021/09/03 16:39:31;;;;;;;10.38;7.22;;;;;;;23.18;63.12;101810.63;10459167;28;20056;-62
2021/09/03 16:44:34;;;;;;;11.75;6.80;;;;;;;22.99;65.49;101805.31;10460398;28;20049;-62
2021/09/03 16:49:36;;;;;;;8.40;6.95;;;;;;;23.25;66.54;101804.66;10459957;28;20048;-62
2021/09/03 16:54:41;;;;;;;9.32;6.25;;;;;;;23.17;69.48;101805.44;10460648;28;20049;-62
2021/09/03 16:59:43;;;;;;;13.05;7.88;;;;;;;22.85;68.85;101809.28;10459947;28;20045;-62
2021/09/03 17:04:46;;;;;;;11.27;7.55;;;;;;;22.47;72.40;101808.34;10459545;28;20040;-61
2021/09/03 17:09:48;;;;;;;13.60;8.10;;;;;;;22.58;71.00;101804.69;10457724;28;20052;-61
2021/09/03 17:14:51;;;;;;;12.00;7.28;;;;;;;22.59;70.58;101793.03;10459308;28;20048;-61
2021/09/03 17:19:53;;;;;;;15.63;7.13;;;;;;;22.42;73.86;101792.75;10458583;28;20405;-61
2021/09/03 17:24:57;;;;;;;11.27;7.65;;;;;;;22.03;76.68;101795.38;10458764;28;20052;-61
2021/09/03 17:29:59;;;;;;;11.95;8.13;;;;;;;21.87;78.85;101789.75;10458645;28;20060;-62
2021/09/03 17:35:02;;;;;;;13.65;8.70;;;;;;;21.41;81.41;101793.81;10458936;28;20052;-62
2021/09/03 17:40:06;;;;;;;13.88;8.82;;;;;;;21.19;83.27;101794.88;10457912;28;20053;-63
2021/09/03 17:45:10;;;;;;;11.57;8.80;;;;;;;20.90;83.21;101796.41;10457990;28;20059;-62
2021/09/03 17:50:12;;;;;;;10.10;7.60;;;;;;;20.87;85.06;101798.47;10458041;28;20045;-62
2021/09/03 17:55:16;;;;;;;18.08;9.60;;;;;;;20.56;87.32;101803.69;10457673;28;20040;-61
2021/09/03 18:00:25;;;;;;;11.68;7.93;;;;;;;20.25;88.98;101802.75;10456221;28;20064;-62
2021/09/03 18:05:28;;;;;;;12.50;9.02;;;;;;;20.18;88.69;101799.75;10457205;28;20049;-62
2021/09/03 18:10:30;;;;;;;17.45;9.35;;;;;;;20.15;85.74;101792.88;10456937;28;20096;-61
2021/09/03 18:15:33;;;;;;;16.20;10.38;;;;;;;20.22;84.17;101793.22;10457242;28;20040;-61
2021/09/03 18:20:36;;;;;;;16.42;10.98;;;;;;;19.98;86.49;101799.56;10456813;28;20049;-61
2021/09/03 18:25:38;;;;;;;17.23;10.85;;;;;;;19.82;88.00;101805.31;10456670;28;20504;-61
2021/09/03 18:30:41;;;;;;;16.67;10.07;;;;;;;19.60;89.98;101806.16;10456465;28;20049;-62
2021/09/03 18:35:44;;;;;;;19.52;10.10;;;;;;;19.43;90.24;101809.28;10456895;28;20045;-61
2021/09/03 18:40:47;;;;;;;14.57;10.57;;;;;;;19.25;91.91;101806.28;10456207;28;20045;-61
2021/09/03 18:45:49;;;;;;;17.10;10.82;;;;;;;19.02;93.92;101816.03;10457584;28;20052;-62
2021/09/03 18:50:52;;;;;;;19.73;10.82;;;;;;;19.03;93.77;101823.00;10464571;28;20048;-62
2021/09/03 18:55:56;;;;;;;15.70;11.18;;;;;;;18.99;93.60;101832.19;10464487;28;20485;-63
2021/09/03 19:00:58;;;;;;;16.52;10.32;;;;;;;18.86;93.51;101841.09;10464135;28;20413;-62
2021/09/03 19:06:01;;;;;;;17.77;10.90;;;;;;;18.89;93.64;101838.19;10464193;28;20055;-62
2021/09/03 19:11:04;;;;;;;19.42;11.80;;;;;;;18.81;93.56;101845.00;10464125;28;20139;-62
2021/09/03 19:16:06;;;;;;;15.15;11.23;;;;;;;18.99;91.07;101862.22;10463793;28;20045;-61
2021/09/03 19:21:09;;;;;;;19.63;11.73;;;;;;;18.63;94.17;101857.88;10463698;28;20052;-61
2021/09/03 19:26:12;;;;;;;19.10;12.60;;;;;;;18.65;93.46;101862.09;10463320;28;20370;-61
2021/09/03 19:31:14;;;;;;;24.13;14.95;;;;;;;18.08;97.40;101868.91;10463621;28;20057;-61
2021/09/03 19:36:16;;;;;;;28.95;13.98;;;;;;;18.19;95.07;101870.81;10463196;28;20049;-62
2021/09/03 19:41:19;;;;;;;22.80;14.77;;;;;;;17.85;97.37;101874.97;10462788;28;20057;-62
2021/09/03 19:46:22;;;;;;;24.33;16.42;;;;;;;17.96;97.06;101868.00;10463087;28;20056;-61
2021/09/03 19:51:24;;;;;;;24.58;14.02;;;;;;;17.86;96.93;101861.63;10462475;28;20048;-61
2021/09/03 19:56:27;;;;;;;21.15;14.07;;;;;;;17.82;96.92;101868.13;10462076;28;20049;-61
2021/09/03 20:01:29;;;;;;;24.50;14.43;;;;;;;17.75;97.71;101866.84;10460776;28;20048;-61
2021/09/03 20:06:32;;;;;;;21.55;16.17;;;;;;;17.21;100.00;101873.22;10461896;28;20079;-61
2021/09/03 20:11:34;;;;;;;24.45;15.82;;;;;;;17.33;100.00;101879.47;10461827;28;20049;-61
2021/09/03 20:16:37;;;;;;;29.17;16.88;;;;;;;17.13;100.00;101873.78;10461359;28;20056;-61
2021/09/03 20:21:39;;;;;;;26.95;16.50;;;;;;;17.04;100.00;101875.22;10461238;28;20056;-62
2021/09/03 20:26:42;;;;;;;26.55;15.82;;;;;;;17.07;100.00;101872.38;10460108;28;20064;-61
2021/09/03 20:31:44;;;;;;;24.98;16.10;;;;;;;16.76;100.00;101870.06;10459821;28;20049;-61
2021/09/03 20:36:46;;;;;;;24.60;15.45;;;;;;;16.76;100.00;101873.56;10460470;28;20045;-61
2021/09/03 20:41:49;;;;;;;25.80;16.25;;;;;;;16.51;100.00;101874.34;10460590;28;20070;-62
2021/09/03 20:46:51;;;;;;;29.05;17.92;;;;;;;16.53;100.00;101881.19;10460778;28;20057;-61
2021/09/03 20:51:54;;;;;;;27.17;14.23;;;;;;;16.50;100.00;101876.13;10460012;28;20485;-60
2021/09/03 20:56:56;;;;;;;26.92;15.20;;;;;;;16.36;100.00;101873.53;10459891;28;20051;-63
2021/09/03 21:01:58;;;;;;;26.20;17.05;;;;;;;16.45;100.00;101878.22;10459670;28;20505;-62
2021/09/03 21:07:01;;;;;;;28.00;15.07;;;;;;;16.26;100.00;101875.91;10459180;28;20073;-62
2021/09/03 21:12:04;;;;;;;23.75;14.15;;;;;;;16.29;100.00;101878.38;10458888;28;20375;-61
2021/09/03 21:17:06;;;;;;;25.75;16.05;;;;;;;16.22;100.00;101876.22;10459138;28;20060;-61
2021/09/03 21:22:09;;;;;;;24.58;15.63;;;;;;;16.21;100.00;101882.47;10458994;28;20056;-60
2021/09/03 21:27:11;;;;;;;24.27;17.08;;;;;;;16.05;100.00;101878.13;10458633;28;20064;-61
2021/09/03 21:32:14;;;;;;;29.00;17.27;;;;;;;15.94;100.00;101880.63;10458334;28;20052;-61
2021/09/03 21:37:16;;;;;;;27.75;16.08;;;;;;;15.90;100.00;101887.03;10458242;28;20045;-61
2021/09/03 21:42:19;;;;;;;27.88;15.60;;;;;;;15.94;100.00;101884.09;10458102;28;20045;-60
2021/09/03 21:47:21;;;;;;;20.52;14.90;;;;;;;16.20;100.00;101886.88;10458274;28;20049;-63
2021/09/03 21:52:23;;;;;;;23.88;14.77;;;;;;;15.90;100.00;101900.22;10457720;28;20493;-61
2021/09/03 21:57:26;;;;;;;28.23;16.90;;;;;;;15.64;100.00;101897.38;10457799;28;20049;-61
2021/09/03 22:02:28;;;;;;;26.45;17.27;;;;;;;15.52;100.00;101898.13;10457503;28;20052;-61
2021/09/03 22:07:31;;;;;;;29.50;16.40;;;;;;;15.79;100.00;101900.91;10457223;28;20087;-62
2021/09/03 22:12:33;;;;;;;22.98;16.38;;;;;;;15.37;100.00;101894.63;10457665;28;20126;-61
2021/09/03 22:17:36;;;;;;;25.25;16.70;;;;;;;15.34;100.00;101902.72;10456743;28;20500;-60
2021/09/03 22:22:38;;;;;;;31.50;17.90;;;;;;;15.30;100.00;101903.84;10456082;28;20413;-60
2021/09/03 22:27:41;;;;;;;24.83;17.02;;;;;;;15.04;100.00;101901.81;10456146;28;20049;-61
2021/09/03 22:32:44;;;;;;;28.55;15.90;;;;;;;15.12;100.00;101904.00;10455262;28;20532;-61
2021/09/03 22:37:46;;;;;;;25.77;18.00;;;;;;;15.00;100.00;101910.84;10456362;28;20048;-61
2021/09/03 22:42:48;;;;;;;25.30;16.55;;;;;;;15.17;100.00;101904.56;10456394;28;20041;-61